Johannesburg, South Africa
Current Conditions -  °F | °C
As of 3:30 PM on Saturday 20 Dec 2014 (Local Time) from FAOR Reporting Station
Few Clouds Few Clouds  
Wind Chill: 27°   Ceiling: Unl
Heat Index: 27°   Visibility: 6mi
Dew Point: 10°   Wind: 13mph
Humidity: 34%   Direction: 250°WSW
Pressure: 30.12"   Gusts: NA
Location:  26.19°S, 28.04°E
Report Text: FAOR 201330Z 25011KT 180V280 9999 FEW049TCU 27/10 Q1020 NOSIG
Loading
Personal Weather Stations






























Interactive Weather Map New forecast layout! Learn more

10-Day Weather Forecast

Advertisements
Track Severe Weather on mobile